createdAt,value
2018-09-19T00:01:49.215Z,84.40
2018-09-19T00:04:18.176Z,84.10
2018-09-19T00:06:46.897Z,83.90
2018-09-19T00:09:15.900Z,85.10
2018-09-19T00:11:44.371Z,84.90
2018-09-19T00:14:13.320Z,84.60
2018-09-19T00:16:42.061Z,85.20
2018-09-19T00:19:11.604Z,83.60
2018-09-19T00:21:40.543Z,84.70
2018-09-19T00:24:09.256Z,84.60
2018-09-19T00:26:37.844Z,84.90
2018-09-19T00:29:06.525Z,83.90
2018-09-19T00:31:35.245Z,84.10
2018-09-19T00:34:04.104Z,83.90
2018-09-19T00:36:32.911Z,84.70
2018-09-19T00:39:01.887Z,83.90
2018-09-19T00:41:32.041Z,85.30
2018-09-19T00:44:00.670Z,84.30
2018-09-19T00:46:29.389Z,84.10
2018-09-19T00:48:58.142Z,84.20
2018-09-19T00:51:26.963Z,83.90
2018-09-19T00:53:56.060Z,83.90
2018-09-19T00:56:24.793Z,84.60
2018-09-19T00:58:53.377Z,84.50
2018-09-19T01:01:22.157Z,83.80
2018-09-19T01:03:50.910Z,84.70
2018-09-19T01:06:19.766Z,84.40
2018-09-19T01:08:48.353Z,84.20
2018-09-19T01:11:17.000Z,84.10
2018-09-19T01:13:46.024Z,84.20
2018-09-19T01:16:15.755Z,83.80
2018-09-19T01:18:44.936Z,83.90
2018-09-19T01:21:13.566Z,84.10
2018-09-19T01:23:42.282Z,83.80
2018-09-19T01:26:11.402Z,83.30
2018-09-19T01:28:39.820Z,82.90
2018-09-19T01:31:08.470Z,82.70
2018-09-19T01:33:37.176Z,83.30
2018-09-19T01:36:05.940Z,82.50
2018-09-19T01:38:34.920Z,82.30
2018-09-19T01:41:03.819Z,83.40
2018-09-19T01:43:32.521Z,82.30
2018-09-19T01:46:01.176Z,82.30
2018-09-19T01:48:29.921Z,81.90
2018-09-19T01:50:58.678Z,82.20
2018-09-19T01:53:27.388Z,82.70
2018-09-19T01:55:56.164Z,82.70
2018-09-19T01:58:25.168Z,82.50
2018-09-19T02:00:53.596Z,82.40
2018-09-19T02:03:22.305Z,82.90
2018-09-19T02:05:51.027Z,82.60
2018-09-19T02:08:19.845Z,82.90
2018-09-19T02:10:48.429Z,83.40
2018-09-19T02:13:17.240Z,82.80
2018-09-19T02:15:45.966Z,82.90
2018-09-19T02:18:14.813Z,82.40
2018-09-19T02:20:43.543Z,82.60
2018-09-19T02:23:12.650Z,83.10
2018-09-19T02:25:41.111Z,84.00
2018-09-19T02:28:09.838Z,84.00
2018-09-19T02:30:38.775Z,82.90
2018-09-19T02:33:07.778Z,83.90
2018-09-19T02:35:36.512Z,83.60
2018-09-19T02:38:05.924Z,84.80
2018-09-19T02:40:34.620Z,84.00
2018-09-19T02:43:03.078Z,84.00
2018-09-19T02:45:31.758Z,84.60
2018-09-19T02:48:00.512Z,83.50
2018-09-19T02:50:29.204Z,84.20
2018-09-19T02:52:58.001Z,84.40
2018-09-19T02:55:28.125Z,85.00
2018-09-19T02:57:56.673Z,84.20
2018-09-19T03:00:25.390Z,84.90
2018-09-19T03:02:54.057Z,85.00
2018-09-19T03:05:23.874Z,84.50
2018-09-19T03:07:52.999Z,84.80
2018-09-19T03:10:21.792Z,85.30
2018-09-19T03:12:50.507Z,85.20
2018-09-19T03:15:19.304Z,84.60
2018-09-19T03:17:48.210Z,84.20
2018-09-19T03:20:16.672Z,84.70
2018-09-19T03:22:45.837Z,84.80
2018-09-19T03:25:14.449Z,84.90
2018-09-19T03:27:43.191Z,84.50
2018-09-19T03:30:12.113Z,85.70
2018-09-19T03:32:40.884Z,84.50
2018-09-19T03:35:09.522Z,84.90
2018-09-19T03:37:38.330Z,83.90
2018-09-19T03:40:07.063Z,85.80
2018-09-19T03:42:35.904Z,84.60
2018-09-19T03:45:04.621Z,84.80
2018-09-19T03:47:33.517Z,84.50
2018-09-19T03:50:02.461Z,84.80
2018-09-19T03:52:31.237Z,85.00
2018-09-19T03:54:59.871Z,84.60
2018-09-19T03:57:29.123Z,85.00
2018-09-19T03:59:58.051Z,85.10
2018-09-19T04:02:27.517Z,85.40
2018-09-19T04:04:56.279Z,84.40
2018-09-19T04:07:24.999Z,85.10
2018-09-19T04:09:53.482Z,84.50
2018-09-19T04:12:22.289Z,84.30
2018-09-19T04:14:51.220Z,84.50
2018-09-19T04:17:21.341Z,84.40
2018-09-19T04:19:49.658Z,85.00
2018-09-19T04:22:18.583Z,85.00
2018-09-19T04:24:47.539Z,84.70
2018-09-19T04:27:16.378Z,84.50
2018-09-19T04:29:45.430Z,84.70
2018-09-19T04:32:13.953Z,84.50
2018-09-19T04:34:42.486Z,84.30
2018-09-19T04:37:11.477Z,84.20
2018-09-19T04:39:41.214Z,85.00
2018-09-19T04:42:09.764Z,84.50
2018-09-19T04:44:38.664Z,84.20
2018-09-19T04:47:07.502Z,83.80
2018-09-19T04:49:36.122Z,84.20
2018-09-19T04:52:06.612Z,84.50
2018-09-19T04:54:35.893Z,84.20
2018-09-19T04:57:04.329Z,83.90
2018-09-19T04:59:33.197Z,85.00
2018-09-19T05:02:01.894Z,83.70
2018-09-19T05:04:30.647Z,84.20
2018-09-19T05:06:59.363Z,83.90
2018-09-19T05:09:28.216Z,83.80
2018-09-19T05:11:57.042Z,84.50
2018-09-19T05:14:25.721Z,84.30
2018-09-19T05:16:54.432Z,84.30
2018-09-19T05:19:23.113Z,84.60
2018-09-19T05:21:51.739Z,84.20
2018-09-19T05:24:20.464Z,83.70
2018-09-19T05:26:49.410Z,84.90
2018-09-19T05:29:18.465Z,84.30
2018-09-19T05:31:47.115Z,84.00
2018-09-19T05:34:15.799Z,84.80
2018-09-19T05:36:44.639Z,84.00
2018-09-19T05:39:13.449Z,83.90
2018-09-19T05:41:43.724Z,84.80
2018-09-19T05:44:14.953Z,83.70
2018-09-19T05:46:43.780Z,83.70
2018-09-19T05:49:13.379Z,83.60
2018-09-19T05:51:42.854Z,83.60
2018-09-19T05:54:11.210Z,83.30
2018-09-19T05:56:40.089Z,83.20
2018-09-19T06:00:38.074Z,84.50
2018-09-19T06:03:06.870Z,83.50
2018-09-19T06:05:35.628Z,83.60
2018-09-19T06:08:04.676Z,83.50
2018-09-19T06:10:33.357Z,83.50
2018-09-19T06:13:02.133Z,83.80
2018-09-19T06:15:31.056Z,83.80
2018-09-19T06:18:00.161Z,83.90
2018-09-19T06:20:28.785Z,83.80
2018-09-19T06:22:57.620Z,84.00
2018-09-19T06:25:26.715Z,83.50
2018-09-19T06:27:56.681Z,83.40
2018-09-19T06:30:25.202Z,83.40
2018-09-19T06:32:54.265Z,83.70
2018-09-19T06:35:23.138Z,83.50
2018-09-19T06:37:51.841Z,83.90
2018-09-19T06:40:20.863Z,83.10
2018-09-19T06:42:49.428Z,82.90
2018-09-19T06:45:18.268Z,82.80
2018-09-19T06:47:46.770Z,82.90
2018-09-19T06:50:15.896Z,82.50
2018-09-19T06:52:44.282Z,82.90
2018-09-19T06:55:13.330Z,82.90
2018-09-19T06:57:42.079Z,82.70
2018-09-19T07:00:10.525Z,82.10
2018-09-19T07:02:39.252Z,82.10
2018-09-19T07:05:07.910Z,82.10
2018-09-19T07:07:38.100Z,82.10
2018-09-19T07:10:06.408Z,82.90
2018-09-19T07:12:35.123Z,82.20
2018-09-19T07:15:03.751Z,82.00
2018-09-19T07:17:32.452Z,82.40
2018-09-19T07:20:01.576Z,82.20
2018-09-19T07:22:31.350Z,81.90
2018-09-19T07:24:59.766Z,81.90
2018-09-19T07:27:28.659Z,82.40
2018-09-19T07:29:57.498Z,81.50
2018-09-19T07:32:26.012Z,81.30
2018-09-19T07:34:54.716Z,81.30
2018-09-19T07:37:23.497Z,81.20
2018-09-19T07:39:52.091Z,81.10
2018-09-19T07:42:20.933Z,81.20
2018-09-19T07:44:49.661Z,81.30
2018-09-19T07:47:18.472Z,80.80
2018-09-19T07:49:47.221Z,80.70
2018-09-19T07:52:16.132Z,80.80
2018-09-19T07:54:44.774Z,80.50
2018-09-19T07:57:13.436Z,80.30
2018-09-19T07:59:42.332Z,80.00
2018-09-19T08:02:11.173Z,79.40
2018-09-19T08:04:40.122Z,79.60
2018-09-19T08:07:08.781Z,79.60
2018-09-19T08:09:37.453Z,79.60
2018-09-19T08:12:06.388Z,79.70
2018-09-19T08:14:35.150Z,79.40
2018-09-19T08:17:04.165Z,79.00
2018-09-19T08:19:32.999Z,78.20
2018-09-19T08:22:01.869Z,77.90
2018-09-19T08:24:30.669Z,78.60
2018-09-19T08:26:59.275Z,77.60
2018-09-19T08:29:29.631Z,77.40
2018-09-19T08:31:58.089Z,77.70
2018-09-19T08:34:27.049Z,77.90
2018-09-19T08:36:56.353Z,78.20
2018-09-19T08:39:24.866Z,78.10
2018-09-19T08:41:53.596Z,77.80
2018-09-19T08:44:22.236Z,77.70
2018-09-19T08:46:50.844Z,77.40
2018-09-19T08:49:20.051Z,77.90
2018-09-19T08:51:48.715Z,77.40
2018-09-19T08:54:17.210Z,76.80
2018-09-19T08:56:50.861Z,76.90
2018-09-19T08:59:19.843Z,76.10
2018-09-19T09:01:48.846Z,75.80
2018-09-19T09:04:17.506Z,76.70
2018-09-19T09:06:46.154Z,76.30
2018-09-19T09:09:14.692Z,76.50
2018-09-19T09:11:43.272Z,77.10
2018-09-19T09:14:12.143Z,77.00
2018-09-19T09:16:40.756Z,77.20
2018-09-19T09:19:09.378Z,77.50
2018-09-19T09:21:37.937Z,77.70
2018-09-19T09:24:06.869Z,76.70
2018-09-19T09:26:35.618Z,76.80
2018-09-19T09:29:04.253Z,77.20
2018-09-19T09:31:33.186Z,75.90
2018-09-19T09:34:01.838Z,75.20
2018-09-19T09:36:30.392Z,75.10
2018-09-19T09:38:59.098Z,74.90
2018-09-19T09:41:27.901Z,75.00
2018-09-19T09:43:56.775Z,75.00
2018-09-19T09:46:25.417Z,74.80
2018-09-19T09:48:54.320Z,73.80
2018-09-19T09:51:22.828Z,73.50
2018-09-19T09:53:51.515Z,72.70
2018-09-19T09:56:20.205Z,72.70
2018-09-19T09:58:48.855Z,71.40
2018-09-19T10:01:17.583Z,71.90
2018-09-19T10:03:46.450Z,71.30
2018-09-19T10:06:15.191Z,71.10
2018-09-19T10:08:43.782Z,70.50
2018-09-19T10:11:12.714Z,71.80
2018-09-19T10:13:41.356Z,71.50
2018-09-19T10:16:10.479Z,71.20
2018-09-19T10:18:38.839Z,70.40
2018-09-19T10:21:07.444Z,70.00
2018-09-19T10:23:36.101Z,69.20
2018-09-19T10:26:04.940Z,69.30
2018-09-19T10:28:34.343Z,69.30
2018-09-19T10:31:02.883Z,69.30
2018-09-19T10:33:31.733Z,67.80
2018-09-19T10:36:00.637Z,66.50
2018-09-19T10:38:29.333Z,68.40
2018-09-19T10:40:57.921Z,66.60
2018-09-19T10:43:27.629Z,67.80
2018-09-19T10:45:56.335Z,64.60
2018-09-19T10:48:25.134Z,65.40
2018-09-19T10:50:53.950Z,67.50
2018-09-19T10:53:22.959Z,65.30
2018-09-19T10:55:51.435Z,63.50
2018-09-19T10:58:23.300Z,64.90
2018-09-19T11:00:51.917Z,62.50
2018-09-19T11:03:20.748Z,63.00
2018-09-19T11:05:49.486Z,63.80
2018-09-19T11:08:18.501Z,63.20
2018-09-19T11:10:47.376Z,64.70
2018-09-19T11:13:16.180Z,63.80
2018-09-19T11:15:45.000Z,63.70
2018-09-19T11:18:16.844Z,65.20
2018-09-19T11:20:45.649Z,63.90
2018-09-19T11:23:14.354Z,63.30
2018-09-19T11:25:43.545Z,64.10
2018-09-19T11:28:12.766Z,62.70
2018-09-19T11:30:43.188Z,63.60
2018-09-19T11:33:11.889Z,63.30
2018-09-19T11:35:40.518Z,62.50
2018-09-19T11:38:09.481Z,63.00
2018-09-19T11:40:37.991Z,62.50
2018-09-19T11:43:06.618Z,61.20
2018-09-19T11:45:35.860Z,62.30
2018-09-19T11:48:04.852Z,62.20
2018-09-19T11:50:33.393Z,61.10
2018-09-19T11:53:02.343Z,60.70
2018-09-19T11:55:31.076Z,61.60
2018-09-19T11:57:59.994Z,60.50
2018-09-19T12:00:28.660Z,61.10
2018-09-19T12:02:57.781Z,58.80
2018-09-19T12:05:26.423Z,59.50
2018-09-19T12:07:55.980Z,59.20
2018-09-19T12:10:25.604Z,60.00
2018-09-19T12:12:54.441Z,59.00
2018-09-19T12:15:24.078Z,59.10
2018-09-19T12:17:52.893Z,58.40
2018-09-19T12:20:22.044Z,58.50
2018-09-19T12:22:51.037Z,58.10
2018-09-19T12:25:19.852Z,59.10
2018-09-19T12:27:51.725Z,59.00
2018-09-19T12:30:21.822Z,58.20
2018-09-19T12:32:50.532Z,57.80
2018-09-19T12:35:19.705Z,57.90
2018-09-19T12:37:48.422Z,57.90
2018-09-19T12:40:17.345Z,58.10
2018-09-19T12:42:45.985Z,57.60
2018-09-19T12:45:15.778Z,58.10
2018-09-19T12:47:44.460Z,57.60
2018-09-19T12:50:13.665Z,58.00
2018-09-19T12:52:42.868Z,57.90
2018-09-19T12:55:12.242Z,57.40
2018-09-19T12:57:40.923Z,57.60
2018-09-19T13:00:09.837Z,58.10
2018-09-19T13:02:38.486Z,58.40
2018-09-19T13:05:10.080Z,58.50
2018-09-19T13:07:38.701Z,58.30
2018-09-19T13:10:07.568Z,57.40
2018-09-19T13:12:37.056Z,58.10
2018-09-19T13:15:07.109Z,58.80
2018-09-19T13:17:36.322Z,58.30
2018-09-19T13:20:06.469Z,58.10
2018-09-19T13:22:34.869Z,57.60
2018-09-19T13:25:03.861Z,58.30
2018-09-19T13:27:32.524Z,58.20
2018-09-19T13:30:01.233Z,58.20
2018-09-19T13:32:30.057Z,57.80
2018-09-19T13:34:58.723Z,58.00
2018-09-19T13:37:27.228Z,57.00
2018-09-19T13:39:55.957Z,56.40
2018-09-19T13:42:24.922Z,56.40
2018-09-19T13:44:53.898Z,57.40
2018-09-19T13:47:22.609Z,57.50
2018-09-19T13:49:54.517Z,57.10
2018-09-19T13:52:23.361Z,57.90
2018-09-19T13:54:55.470Z,57.90
2018-09-19T13:57:24.641Z,57.40
2018-09-19T13:59:53.861Z,57.10
2018-09-19T14:02:23.767Z,57.60
2018-09-19T14:04:52.471Z,57.60
2018-09-19T14:07:21.248Z,57.90
2018-09-19T14:09:49.965Z,58.10
2018-09-19T14:12:18.684Z,56.70
2018-09-19T14:14:47.352Z,58.00
2018-09-19T14:17:16.112Z,57.60
2018-09-19T14:19:46.006Z,57.80
2018-09-19T14:22:14.869Z,58.00
2018-09-19T14:24:43.820Z,57.40
2018-09-19T14:27:12.707Z,58.40
2018-09-19T14:29:41.544Z,58.40
2018-09-19T14:32:10.464Z,58.10
2018-09-19T14:34:39.105Z,58.00
2018-09-19T14:37:07.730Z,57.60
2018-09-19T14:39:36.542Z,58.10
2018-09-19T14:43:29.873Z,57.20
2018-09-19T14:45:59.036Z,56.50
2018-09-19T14:48:27.790Z,57.60
2018-09-19T14:50:56.474Z,57.30
2018-09-19T14:53:24.933Z,58.10
2018-09-19T14:55:53.688Z,57.50
2018-09-19T14:58:22.796Z,58.70
2018-09-19T15:00:51.460Z,58.50
2018-09-19T15:03:20.108Z,58.10
2018-09-19T15:05:48.492Z,58.50
2018-09-19T15:08:17.086Z,58.00
2018-09-19T15:10:45.820Z,57.80
2018-09-19T15:13:15.916Z,58.60
2018-09-19T15:15:45.483Z,58.70
2018-09-19T15:18:14.503Z,59.30
2018-09-19T15:20:43.204Z,59.40
2018-09-19T15:23:12.073Z,59.80
2018-09-19T15:25:41.479Z,59.70
2018-09-19T15:28:10.671Z,59.50
2018-09-19T15:30:39.636Z,59.40
2018-09-19T15:33:08.367Z,59.90
2018-09-19T15:35:36.903Z,60.00
2018-09-19T15:38:05.740Z,61.10
2018-09-19T15:40:34.309Z,60.70
2018-09-19T15:43:03.153Z,60.40
2018-09-19T15:45:31.881Z,60.80
2018-09-19T15:48:00.619Z,60.20
2018-09-19T15:50:29.604Z,61.40
2018-09-19T15:52:58.250Z,59.40
2018-09-19T15:55:27.196Z,59.70
2018-09-19T15:57:55.797Z,60.60
2018-09-19T16:00:24.934Z,60.10
2018-09-19T16:02:53.376Z,60.00
2018-09-19T16:05:22.141Z,60.30
2018-09-19T16:07:50.981Z,60.10
2018-09-19T16:10:19.703Z,60.80
2018-09-19T16:12:48.562Z,61.20
2018-09-19T16:15:17.765Z,61.50
2018-09-19T16:17:45.993Z,61.90
2018-09-19T16:20:14.613Z,62.00
2018-09-19T16:22:43.365Z,62.30
2018-09-19T16:25:12.368Z,62.00
2018-09-19T16:29:05.542Z,62.20
2018-09-19T16:31:34.122Z,61.70
2018-09-19T16:34:02.750Z,62.60
2018-09-19T16:36:31.488Z,62.70
2018-09-19T16:39:00.268Z,62.90
2018-09-19T16:41:28.980Z,63.20
2018-09-19T16:43:57.917Z,63.90
2018-09-19T16:46:27.510Z,64.30
2018-09-19T16:50:21.840Z,64.30
2018-09-19T16:52:50.813Z,64.40
2018-09-19T16:55:19.015Z,65.30
2018-09-19T16:57:47.851Z,66.00
2018-09-19T17:00:16.698Z,66.20
2018-09-19T17:02:45.398Z,66.80
2018-09-19T17:05:14.381Z,66.90
2018-09-19T17:07:43.453Z,67.00
2018-09-19T17:10:12.477Z,67.50
2018-09-19T17:12:41.640Z,68.00
2018-09-19T17:15:10.292Z,67.80
2018-09-19T17:17:40.005Z,67.90
2018-09-19T17:20:08.640Z,68.00
2018-09-19T17:22:37.245Z,68.20
2018-09-19T17:25:06.049Z,68.70
2018-09-19T17:27:34.516Z,68.40
2018-09-19T17:30:03.091Z,68.80
2018-09-19T17:32:31.807Z,69.20
2018-09-19T17:35:00.628Z,69.30
2018-09-19T17:37:29.378Z,69.00
2018-09-19T17:39:59.248Z,69.50
2018-09-19T17:42:27.769Z,69.90
2018-09-19T17:44:56.484Z,69.60
2018-09-19T17:47:25.302Z,70.20
2018-09-19T17:49:55.328Z,70.40
2018-09-19T17:52:23.636Z,70.60
2018-09-19T17:54:53.444Z,70.60
2018-09-19T17:57:22.169Z,70.60
2018-09-19T17:59:50.896Z,70.60
2018-09-19T18:02:19.762Z,70.80
2018-09-19T18:04:48.612Z,71.20
2018-09-19T18:07:17.473Z,71.50
2018-09-19T18:09:46.198Z,71.20
2018-09-19T18:12:14.910Z,71.30
2018-09-19T18:14:43.756Z,72.40
2018-09-19T18:17:12.342Z,72.00
2018-09-19T18:19:41.216Z,72.00
2018-09-19T18:22:09.830Z,72.20
2018-09-19T18:24:38.904Z,72.30
2018-09-19T18:27:10.583Z,73.00
2018-09-19T18:29:39.274Z,72.60
2018-09-19T18:32:08.045Z,73.20
2018-09-19T18:34:38.108Z,73.10
2018-09-19T18:37:07.337Z,73.10
2018-09-19T18:39:36.042Z,73.50
2018-09-19T18:42:04.861Z,74.20
2018-09-19T18:44:33.589Z,73.80
2018-09-19T18:47:02.206Z,74.00
2018-09-19T18:49:31.316Z,73.90
2018-09-19T18:52:00.940Z,74.00
2018-09-19T18:54:29.530Z,74.30
2018-09-19T18:56:59.136Z,74.30
2018-09-19T18:59:28.031Z,74.70
2018-09-19T19:01:56.760Z,74.50
2018-09-19T19:04:25.611Z,74.60
2018-09-19T19:06:54.426Z,74.90
2018-09-19T19:09:24.208Z,75.50
2018-09-19T19:11:52.853Z,75.20
2018-09-19T19:14:21.681Z,75.60
2018-09-19T19:16:50.511Z,75.30
2018-09-19T19:19:19.032Z,75.80
2018-09-19T19:21:47.788Z,75.70
2018-09-19T19:24:16.545Z,75.90
2018-09-19T19:26:45.347Z,76.40
2018-09-19T19:29:14.108Z,76.60
2018-09-19T19:31:42.945Z,76.50
2018-09-19T19:34:13.904Z,76.00
2018-09-19T19:36:42.338Z,76.00
2018-09-19T19:39:12.119Z,76.30
2018-09-19T19:41:42.281Z,77.20
2018-09-19T19:44:10.741Z,76.30
2018-09-19T19:46:39.361Z,76.50
2018-09-19T19:49:14.685Z,77.30
2018-09-19T19:51:43.949Z,76.60
2018-09-19T19:54:12.805Z,76.50
2018-09-19T19:56:41.377Z,76.30
2018-09-19T19:59:10.684Z,76.90
2018-09-19T20:01:40.087Z,77.50
2018-09-19T20:04:08.803Z,77.40
2018-09-19T20:06:37.544Z,76.90
2018-09-19T20:09:07.751Z,77.10
2018-09-19T20:11:35.973Z,76.50
2018-09-19T20:14:04.877Z,76.80
2018-09-19T20:16:34.817Z,76.60
2018-09-19T20:19:04.393Z,76.50
2018-09-19T20:21:33.549Z,76.10
2018-09-19T20:24:02.304Z,75.90
2018-09-19T20:26:31.157Z,75.90
2018-09-19T20:28:59.881Z,75.70
2018-09-19T20:31:31.593Z,75.90
2018-09-19T20:34:00.073Z,75.80
2018-09-19T20:36:30.129Z,75.60
2018-09-19T20:39:07.136Z,75.90
2018-09-19T20:41:36.368Z,75.70
2018-09-19T20:44:05.296Z,76.50
2018-09-19T20:46:36.508Z,75.90
2018-09-19T20:49:05.352Z,76.40
2018-09-19T20:51:33.881Z,76.70
2018-09-19T20:54:02.568Z,77.00
2018-09-19T20:56:31.319Z,77.00
2018-09-19T20:59:00.201Z,77.20
2018-09-19T21:01:29.005Z,76.70
2018-09-19T21:03:57.705Z,77.10
2018-09-19T21:06:26.528Z,77.20
2018-09-19T21:08:56.157Z,77.30
2018-09-19T21:11:30.434Z,76.90
2018-09-19T21:14:00.616Z,77.10
2018-09-19T21:16:38.057Z,77.00
2018-09-19T21:19:07.748Z,77.10
2018-09-19T21:21:36.057Z,77.20
2018-09-19T21:24:05.699Z,77.60
2018-09-19T21:26:34.524Z,77.70
2018-09-19T21:29:03.539Z,77.60
2018-09-19T21:31:32.492Z,77.90
2018-09-19T21:34:01.330Z,78.10
2018-09-19T21:36:29.951Z,78.10
2018-09-19T21:38:58.569Z,77.90
2018-09-19T21:41:27.180Z,78.60
2018-09-19T21:43:55.922Z,78.40
2018-09-19T21:46:24.575Z,78.60
2018-09-19T21:48:53.289Z,78.40
2018-09-19T21:51:22.332Z,78.60
2018-09-19T21:53:50.969Z,78.40
2018-09-19T21:56:20.560Z,78.80
2018-09-19T21:58:49.529Z,78.60
2018-09-19T22:01:25.000Z,78.40
2018-09-19T22:03:54.206Z,78.40
2018-09-19T22:06:22.879Z,78.30
2018-09-19T22:08:52.482Z,78.10
2018-09-19T22:11:21.089Z,78.60
2018-09-19T22:13:49.809Z,79.10
2018-09-19T22:16:18.794Z,78.40
2018-09-19T22:18:47.154Z,78.90
2018-09-19T22:21:15.900Z,78.70
2018-09-19T22:23:44.733Z,78.60
2018-09-19T22:26:13.359Z,79.00
2018-09-19T22:28:42.160Z,78.80
2018-09-19T22:31:11.136Z,79.40
2018-09-19T22:33:39.764Z,79.40
2018-09-19T22:36:08.626Z,79.20
2018-09-19T22:38:37.582Z,79.60
2018-09-19T22:41:06.302Z,79.40
2018-09-19T22:43:35.129Z,79.40
2018-09-19T22:46:04.604Z,79.70
2018-09-19T22:48:33.725Z,79.70
2018-09-19T22:51:02.337Z,79.90
2018-09-19T22:53:31.312Z,79.80
2018-09-19T22:55:59.916Z,79.60
2018-09-19T22:58:28.457Z,81.00
2018-09-19T23:00:57.141Z,80.00
2018-09-19T23:03:25.861Z,79.70
2018-09-19T23:05:54.762Z,80.10
2018-09-19T23:08:23.536Z,79.70
2018-09-19T23:10:52.266Z,80.30
2018-09-19T23:13:20.873Z,80.20
2018-09-19T23:15:49.661Z,79.90
2018-09-19T23:18:18.212Z,80.00
2018-09-19T23:20:47.276Z,79.80
2018-09-19T23:23:15.748Z,80.70
2018-09-19T23:25:44.565Z,79.90
2018-09-19T23:28:13.424Z,79.90
2018-09-19T23:30:41.957Z,80.00
2018-09-19T23:34:35.165Z,80.20
2018-09-19T23:37:04.137Z,80.10
2018-09-19T23:39:33.300Z,80.30
2018-09-19T23:42:02.255Z,80.60
2018-09-19T23:44:30.767Z,80.70
2018-09-19T23:46:59.605Z,80.40
2018-09-19T23:49:28.289Z,80.90
2018-09-19T23:51:57.153Z,80.50
2018-09-19T23:54:25.776Z,80.70
2018-09-19T23:56:54.540Z,80.90
2018-09-19T23:59:23.794Z,81.30
